Time;durP1;ratioP1;P1;durP2;ratioP2;P2;SDS_P1;SDS_P2;PMS_P1;PMS_P2;Temp;Humidity;BMP_temperature;BMP_pressure;BME280_temperature;BME280_humidity;BME280_pressure;Samples;Min_cycle;Max_cycle;Signal;HPM_P1;HPM_P2
2021/09/05 00:01:35;;;;;;;2.35;2.15;;;;;;;8.29;81.10;99284.25;5109798;28;20043;-65
2021/09/05 00:04:21;;;;;;;6.38;2.75;;;;;;;8.33;81.26;99292.78;5124452;28;20108;-65
2021/09/05 00:07:07;;;;;;;2.25;2.05;;;;;;;8.19;80.91;99298.19;5125047;28;20081;-65
2021/09/05 00:09:53;;;;;;;2.63;2.03;;;;;;;8.21;80.41;99299.03;5124219;28;20019;-65
2021/09/05 00:12:41;;;;;;;2.35;2.15;;;;;;;7.99;80.78;99252.13;5122637;28;20030;-65
2021/09/05 00:15:27;;;;;;;3.85;2.45;;;;;;;7.95;80.79;99263.38;5123503;28;20023;-65
2021/09/05 00:18:12;;;;;;;3.95;2.55;;;;;;;8.18;80.37;99301.66;5124719;28;20091;-64
2021/09/05 00:20:58;;;;;;;3.38;2.60;;;;;;;8.25;80.51;99305.84;5124825;28;20040;-65
2021/09/05 00:23:44;;;;;;;3.00;2.33;;;;;;;8.33;80.14;99308.25;5124646;28;20023;-65
2021/09/05 00:26:32;;;;;;;4.70;2.70;;;;;;;8.23;79.93;99307.56;5122839;28;20338;-66
2021/09/05 00:29:19;;;;;;;3.92;2.63;;;;;;;8.26;79.89;99319.56;5124154;28;20069;-66
2021/09/05 00:32:05;;;;;;;3.10;2.17;;;;;;;8.26;79.85;99309.25;5123008;28;20031;-65
2021/09/05 00:34:51;;;;;;;4.18;2.45;;;;;;;8.13;81.15;99313.78;5120005;28;20035;-65
2021/09/05 00:37:37;;;;;;;4.47;2.70;;;;;;;8.20;79.76;99305.06;5123965;28;20027;-66
2021/09/05 00:40:22;;;;;;;2.45;2.20;;;;;;;8.27;80.33;99318.69;5123735;28;20024;-65
2021/09/05 00:43:08;;;;;;;3.22;2.40;;;;;;;8.02;79.38;99332.00;5123766;28;20023;-66
2021/09/05 00:45:54;;;;;;;4.07;2.40;;;;;;;8.23;80.07;99317.88;5124089;28;20536;-65
2021/09/05 00:48:40;;;;;;;3.92;2.80;;;;;;;8.26;79.86;99315.25;5124342;28;20068;-65
2021/09/05 00:51:31;;;;;;;3.63;2.63;;;;;;;7.97;79.69;99274.53;5123905;28;20039;-65
2021/09/05 00:54:17;;;;;;;5.45;2.80;;;;;;;8.23;80.35;99319.63;5123141;28;20023;-66
2021/09/05 00:57:03;;;;;;;3.60;2.70;;;;;;;8.33;80.63;99331.47;5105469;28;20028;-65
2021/09/05 00:59:49;;;;;;;3.33;2.33;;;;;;;8.32;79.82;99334.09;5110385;28;20027;-65
2021/09/05 01:02:35;;;;;;;3.88;2.28;;;;;;;8.32;80.21;99331.50;5123313;28;20264;-65
2021/09/05 01:05:21;;;;;;;3.88;2.67;;;;;;;8.19;80.98;99321.41;5122811;28;20031;-65
2021/09/05 01:08:07;;;;;;;2.72;2.05;;;;;;;8.30;80.74;99334.13;5105489;28;20020;-65
2021/09/05 01:10:54;;;;;;;2.13;1.92;;;;;;;8.23;79.60;99340.28;5123797;28;20031;-67
2021/09/05 01:13:40;;;;;;;3.50;2.20;;;;;;;8.39;79.64;99346.00;5123798;27;20034;-65
2021/09/05 01:16:35;;;;;;;2.80;2.25;;;;;;;8.40;79.32;99345.97;5122680;28;20028;-65
2021/09/05 01:19:23;;;;;;;3.80;2.83;;;;;;;8.33;79.02;99351.28;5122398;28;20024;-65
2021/09/05 01:22:09;;;;;;;3.00;2.33;;;;;;;8.34;78.66;99353.84;5123753;28;20027;-65
2021/09/05 01:24:54;;;;;;;2.85;2.20;;;;;;;8.36;79.52;99346.06;5122515;28;20342;-65
2021/09/05 01:27:40;;;;;;;1.92;1.80;;;;;;;8.29;78.88;99356.50;5123692;28;20030;-64
2021/09/05 01:30:26;;;;;;;2.70;2.08;;;;;;;8.34;78.86;99355.53;5132037;27;20027;-65
2021/09/05 01:33:14;;;;;;;2.00;1.80;;;;;;;8.05;79.08;99313.06;5122462;27;20153;-66
2021/09/05 01:36:00;;;;;;;2.20;2.00;;;;;;;8.33;79.73;99359.84;5121733;28;20052;-65
2021/09/05 01:38:46;;;;;;;2.92;2.00;;;;;;;8.39;78.99;99366.66;5122241;28;20043;-65
2021/09/05 01:41:32;;;;;;;3.10;2.00;;;;;;;8.40;78.76;99363.19;5122621;28;20038;-65
2021/09/05 01:44:21;;;;;;;1.90;1.80;;;;;;;8.00;79.73;99307.97;5122011;28;20385;-65
2021/09/05 01:47:07;;;;;;;1.88;1.77;;;;;;;8.36;79.16;99371.88;5120517;28;20046;-66
2021/09/05 01:49:53;;;;;;;1.83;1.73;;;;;;;8.37;78.55;99378.72;5124559;27;20343;-65
2021/09/05 01:52:39;;;;;;;1.70;1.60;;;;;;;8.31;77.88;99384.84;5122180;28;20665;-65
2021/09/05 01:55:24;;;;;;;3.80;1.52;;;;;;;8.34;77.00;99391.66;5122879;28;20030;-65
2021/09/05 01:58:10;;;;;;;2.20;1.98;;;;;;;8.32;78.23;99385.69;5123016;28;20020;-65
2021/09/05 02:00:56;;;;;;;1.73;1.63;;;;;;;8.36;78.45;99395.91;5116943;28;20058;-64
2021/09/05 02:03:42;;;;;;;1.80;1.70;;;;;;;8.41;77.27;99399.28;5122110;28;20059;-65
2021/09/05 02:06:28;;;;;;;2.30;2.10;;;;;;;8.41;77.48;99390.72;5122958;28;20110;-66
2021/09/05 02:09:14;;;;;;;2.35;2.10;;;;;;;8.46;78.05;99405.25;5121515;28;20343;-64
2021/09/05 02:11:59;;;;;;;2.22;1.90;;;;;;;8.42;77.54;99406.16;5120551;28;20050;-65
2021/09/05 02:14:45;;;;;;;2.92;2.40;;;;;;;8.40;77.56;99409.63;5122408;28;20020;-66
2021/09/05 02:17:31;;;;;;;2.08;1.88;;;;;;;8.37;76.49;99414.84;5108594;27;20028;-65
2021/09/05 02:20:17;;;;;;;1.90;1.80;;;;;;;8.35;77.56;99421.75;5120686;28;20320;-65
2021/09/05 02:23:03;;;;;;;2.08;1.83;;;;;;;8.21;77.43;99417.69;5120324;28;20102;-65
2021/09/05 02:25:49;;;;;;;1.83;1.70;;;;;;;8.28;77.77;99427.03;5121813;28;20019;-65
2021/09/05 02:28:35;;;;;;;4.25;1.80;;;;;;;8.21;77.54;99421.97;5119762;28;20028;-65
2021/09/05 02:31:21;;;;;;;2.40;1.92;;;;;;;8.32;76.87;99427.81;5108255;28;20084;-65
2021/09/05 02:34:06;;;;;;;3.58;2.00;;;;;;;8.24;77.55;99415.06;5122295;28;20020;-65
2021/09/05 02:36:52;;;;;;;2.17;1.98;;;;;;;8.40;77.02;99440.59;5121512;28;20039;-65
2021/09/05 02:39:38;;;;;;;2.28;2.08;;;;;;;8.29;77.83;99433.03;5122219;28;20100;-65
2021/09/05 02:42:24;;;;;;;2.00;1.80;;;;;;;8.44;76.56;99444.84;5119475;28;20031;-65
2021/09/05 02:45:11;;;;;;;2.75;2.40;;;;;;;8.27;76.25;99437.38;5121839;28;20027;-65
2021/09/05 02:47:58;;;;;;;2.30;2.10;;;;;;;8.41;77.11;99456.06;5121394;28;20050;-65
2021/09/05 02:50:44;;;;;;;3.03;2.30;;;;;;;8.44;76.47;99457.75;5122115;27;20050;-65
2021/09/05 02:53:29;;;;;;;4.10;2.80;;;;;;;8.42;76.52;99460.34;5122000;28;20090;-65
2021/09/05 02:56:15;;;;;;;5.10;2.97;;;;;;;8.43;78.57;99469.78;5107391;28;20028;-64
2021/09/05 02:59:01;;;;;;;4.78;3.22;;;;;;;8.35;77.89;99475.94;5105386;28;20593;-65
2021/09/05 03:01:47;;;;;;;3.20;2.28;;;;;;;8.39;76.76;99475.03;5120091;28;20031;-65
2021/09/05 03:04:33;;;;;;;4.47;2.78;;;;;;;8.34;77.03;99475.09;5120068;28;20024;-65
2021/09/05 03:07:19;;;;;;;3.00;2.58;;;;;;;8.41;75.89;99479.28;5117889;28;20254;-65
2021/09/05 03:10:05;;;;;;;2.45;2.20;;;;;;;8.35;78.08;99478.50;5121546;28;20027;-64
2021/09/05 03:12:52;;;;;;;3.28;2.40;;;;;;;8.37;76.60;99493.09;5120171;28;20340;-65
2021/09/05 03:15:37;;;;;;;3.15;2.28;;;;;;;8.40;77.66;99489.63;5121670;28;20027;-65
2021/09/05 03:18:23;;;;;;;3.22;2.40;;;;;;;8.36;76.47;99500.88;5121402;28;20024;-65
2021/09/05 03:21:09;;;;;;;4.80;3.05;;;;;;;8.34;77.08;99495.75;5123469;28;20028;-65
2021/09/05 03:23:55;;;;;;;2.95;2.50;;;;;;;8.36;78.11;99504.28;5130376;28;20023;-65
2021/09/05 03:26:41;;;;;;;2.45;2.25;;;;;;;8.40;78.24;99503.38;5120954;28;20027;-65
2021/09/05 03:29:27;;;;;;;3.17;2.50;;;;;;;8.39;76.63;99508.56;5121064;28;20020;-64
2021/09/05 03:32:12;;;;;;;2.13;1.92;;;;;;;8.39;76.33;99506.81;5120258;28;20034;-65
2021/09/05 03:34:58;;;;;;;2.55;2.03;;;;;;;8.44;76.23;99525.72;5120218;28;20019;-65
2021/09/05 03:37:44;;;;;;;3.70;2.17;;;;;;;8.39;77.96;99522.31;5121295;28;20032;-65
2021/09/05 03:40:30;;;;;;;2.50;2.30;;;;;;;8.41;77.58;99528.31;5121562;28;20015;-65
2021/09/05 03:43:16;;;;;;;3.30;2.50;;;;;;;8.43;77.90;99529.13;5120573;28;20072;-65
2021/09/05 03:46:02;;;;;;;3.38;2.78;;;;;;;8.35;76.62;99541.31;5119682;28;20099;-65
2021/09/05 03:48:48;;;;;;;2.40;2.20;;;;;;;8.16;76.87;99521.81;5121232;28;20035;-64
2021/09/05 03:51:33;;;;;;;2.30;2.10;;;;;;;8.30;76.41;99538.78;5107667;28;20320;-65
2021/09/05 03:54:19;;;;;;;2.63;1.90;;;;;;;8.43;76.29;99543.78;5120595;28;20051;-64
2021/09/05 03:57:06;;;;;;;2.80;2.28;;;;;;;8.51;75.84;99548.84;5120974;28;20023;-64
2021/09/05 03:59:51;;;;;;;2.67;2.20;;;;;;;8.59;77.40;99547.88;5120520;28;20501;-63
2021/09/05 04:02:37;;;;;;;2.72;2.53;;;;;;;8.55;77.92;99553.06;5121056;28;20050;-64
2021/09/05 04:05:23;;;;;;;2.80;2.53;;;;;;;8.64;77.61;99550.38;5120648;28;20035;-65
2021/09/05 04:10:55;;;;;;;3.45;2.80;;;;;;;8.62;76.70;99552.09;5121306;28;20020;-65
2021/09/05 04:13:41;;;;;;;3.53;2.60;;;;;;;8.59;75.73;99565.06;5120306;28;20027;-65
2021/09/05 04:16:27;;;;;;;3.28;2.83;;;;;;;8.67;75.61;99560.63;5120076;28;20027;-65
2021/09/05 04:19:13;;;;;;;3.90;2.80;;;;;;;8.65;76.00;99570.16;5118852;28;20324;-65
2021/09/05 04:21:58;;;;;;;2.88;2.35;;;;;;;8.62;75.89;99562.44;5120551;28;20020;-65
2021/09/05 04:24:44;;;;;;;2.80;2.55;;;;;;;8.74;76.46;99576.91;5122196;28;20047;-65
2021/09/05 04:27:31;;;;;;;2.80;2.28;;;;;;;8.73;75.35;99582.94;5121781;28;20135;-65
2021/09/05 04:30:17;;;;;;;2.90;2.67;;;;;;;8.71;76.04;99589.84;5122829;28;20023;-65
2021/09/05 04:33:04;;;;;;;2.58;2.38;;;;;;;8.33;76.06;99531.88;5124252;28;20051;-65
2021/09/05 04:35:50;;;;;;;2.30;2.10;;;;;;;8.67;75.15;99589.03;5121805;28;20317;-65
2021/09/05 04:38:36;;;;;;;2.65;2.45;;;;;;;8.73;74.40;99594.09;5123885;28;20027;-64
2021/09/05 04:41:22;;;;;;;2.58;2.38;;;;;;;8.79;74.85;99594.03;5123902;28;20036;-65
2021/09/05 04:44:08;;;;;;;3.10;2.60;;;;;;;8.82;74.99;99585.34;5123866;28;20027;-65
2021/09/05 04:46:54;;;;;;;3.10;2.38;;;;;;;8.87;74.01;99595.63;5105567;28;20126;-64
2021/09/05 04:49:40;;;;;;;2.90;2.25;;;;;;;8.88;73.36;99602.47;5093039;28;20033;-64
2021/09/05 04:52:25;;;;;;;2.70;2.33;;;;;;;8.80;75.28;99606.03;5100284;28;20024;-64
2021/09/05 04:55:11;;;;;;;3.58;2.35;;;;;;;8.72;74.36;99595.00;5108155;28;20058;-64
2021/09/05 04:57:57;;;;;;;2.42;2.22;;;;;;;8.90;75.02;99608.50;5120187;28;20028;-65
2021/09/05 05:00:43;;;;;;;2.45;2.22;;;;;;;8.87;73.87;99603.38;5121480;28;20073;-64
2021/09/05 05:03:29;;;;;;;2.55;2.15;;;;;;;8.90;73.13;99614.50;5123354;28;20024;-64
2021/09/05 05:06:15;;;;;;;2.28;2.00;;;;;;;8.69;73.51;99607.09;5122967;28;20024;-65
2021/09/05 05:09:01;;;;;;;3.05;2.63;;;;;;;8.72;73.80;99623.41;5108493;28;20377;-63
2021/09/05 05:11:47;;;;;;;3.33;2.70;;;;;;;8.71;73.03;99621.69;5122361;28;20031;-64
2021/09/05 05:14:32;;;;;;;5.25;2.50;;;;;;;8.78;72.90;99625.88;5124144;27;20371;-65
2021/09/05 05:17:18;;;;;;;4.03;2.45;;;;;;;8.84;73.32;99632.69;5111141;28;20023;-63
2021/09/05 05:20:05;;;;;;;3.17;2.45;;;;;;;8.56;73.55;99593.50;5122480;28;20263;-65
2021/09/05 05:22:51;;;;;;;4.82;2.22;;;;;;;8.83;72.94;99636.13;5122223;28;20038;-65
2021/09/05 05:25:36;;;;;;;4.10;2.22;;;;;;;8.84;72.53;99642.16;5121941;28;20035;-65
2021/09/05 05:28:22;;;;;;;2.90;2.35;;;;;;;8.87;72.57;99649.88;5121797;28;20027;-65
2021/09/05 05:31:08;;;;;;;3.45;2.20;;;;;;;8.93;72.35;99647.16;5122999;28;20042;-65
2021/09/05 05:33:54;;;;;;;2.75;2.08;;;;;;;8.97;72.59;99654.00;5122629;28;20038;-64
2021/09/05 05:36:40;;;;;;;3.35;2.30;;;;;;;8.86;74.10;99645.56;5121861;28;20054;-65
2021/09/05 05:39:26;;;;;;;2.70;2.08;;;;;;;8.94;73.00;99661.81;5122201;28;20037;-65
2021/09/05 05:42:11;;;;;;;2.15;1.95;;;;;;;9.00;74.32;99660.84;5108004;28;20202;-65
2021/09/05 05:44:57;;;;;;;2.10;1.90;;;;;;;8.96;74.31;99660.03;5119441;28;20128;-64
2021/09/05 05:47:46;;;;;;;2.25;1.90;;;;;;;8.97;74.46;99662.59;5120428;28;20043;-64
2021/09/05 05:50:32;;;;;;;3.20;2.00;;;;;;;9.06;73.78;99668.50;5122437;28;20037;-64
2021/09/05 05:53:18;;;;;;;2.63;2.08;;;;;;;8.83;72.18;99620.63;5121452;28;20126;-67
2021/09/05 05:56:04;;;;;;;3.90;2.25;;;;;;;9.13;73.76;99664.94;5108473;28;20047;-64
2021/09/05 05:58:50;;;;;;;2.40;1.95;;;;;;;9.14;73.04;99667.50;5116500;28;20036;-64
2021/09/05 06:01:40;;;;;;;2.30;1.83;;;;;;;9.02;71.18;99665.13;5118976;28;20255;-64
2021/09/05 06:04:26;;;;;;;2.30;2.10;;;;;;;8.96;71.87;99670.38;5121389;28;20029;-64
2021/09/05 06:07:12;;;;;;;2.40;1.80;;;;;;;9.09;71.72;99677.06;5122257;28;20581;-65
2021/09/05 06:09:58;;;;;;;2.90;1.75;;;;;;;9.05;71.59;99670.25;5121613;28;20317;-64
2021/09/05 06:12:44;;;;;;;4.90;1.70;;;;;;;8.94;72.42;99677.31;5122086;28;20098;-65
2021/09/05 06:15:30;;;;;;;5.72;1.80;;;;;;;9.00;72.61;99672.03;5118946;28;20023;-62
2021/09/05 06:18:16;;;;;;;2.00;1.58;;;;;;;9.08;72.63;99685.69;5120428;28;20024;-63
2021/09/05 06:21:02;;;;;;;1.50;1.40;;;;;;;9.10;72.01;99677.91;5121916;28;20030;-64
2021/09/05 06:23:48;;;;;;;2.25;1.67;;;;;;;9.18;72.18;99690.69;5105018;28;20043;-64
2021/09/05 06:26:34;;;;;;;1.40;1.30;;;;;;;9.19;71.81;99689.84;5120519;28;20067;-64
2021/09/05 06:29:20;;;;;;;3.38;1.60;;;;;;;9.00;71.82;99694.44;5119048;28;20102;-64
2021/09/05 06:32:06;;;;;;;2.03;1.30;;;;;;;9.10;72.30;99699.41;5121272;28;20262;-64
2021/09/05 06:34:52;;;;;;;2.00;1.70;;;;;;;9.25;71.95;99710.41;5120632;28;20036;-63
2021/09/05 06:37:38;;;;;;;2.22;1.90;;;;;;;9.20;71.13;99701.88;5105929;28;20026;-64
2021/09/05 06:40:24;;;;;;;4.38;1.65;;;;;;;9.07;71.38;99694.31;5088784;28;20023;-64
2021/09/05 06:43:11;;;;;;;3.08;1.75;;;;;;;8.99;71.93;99670.31;5121094;28;20035;-64
2021/09/05 06:45:57;;;;;;;4.45;1.88;;;;;;;9.07;72.52;99717.56;5119541;28;20020;-63
2021/09/05 06:48:43;;;;;;;3.72;1.92;;;;;;;9.17;71.17;99730.34;5120029;28;20091;-64
2021/09/05 06:51:29;;;;;;;4.05;1.60;;;;;;;8.88;73.26;99732.47;5119515;28;20265;-64
2021/09/05 06:54:15;;;;;;;1.48;1.38;;;;;;;8.99;72.44;99740.06;5120644;28;20055;-64
2021/09/05 06:57:01;;;;;;;2.85;1.90;;;;;;;8.83;71.99;99738.56;5121887;28;20015;-64
2021/09/05 06:59:47;;;;;;;1.77;1.48;;;;;;;8.80;73.00;99742.03;5115984;28;20061;-64
2021/09/05 07:02:33;;;;;;;4.82;1.90;;;;;;;8.84;73.47;99730.81;5121691;28;20039;-65
2021/09/05 07:05:18;;;;;;;2.53;1.65;;;;;;;8.94;72.72;99745.28;5119921;28;20011;-64
2021/09/05 07:08:05;;;;;;;7.57;2.30;;;;;;;8.74;73.05;99744.72;5121546;28;20020;-62
2021/09/05 07:10:56;;;;;;;;;;;;;;;8.84;73.95;99761.78;5121308;28;20377;-64
2021/09/05 07:13:42;;;;;;;2.15;1.70;;;;;;;8.83;73.20;99767.81;5119590;28;19949;-64
2021/09/05 07:16:28;;;;;;;2.08;1.88;;;;;;;8.80;73.14;99785.94;5120567;28;20031;-64
2021/09/05 07:19:14;;;;;;;1.75;1.63;;;;;;;8.67;73.68;99751.69;5119958;28;20027;-65
2021/09/05 07:22:00;;;;;;;6.45;3.03;;;;;;;8.89;73.88;99787.56;5121515;28;20019;-64
2021/09/05 07:24:46;;;;;;;3.20;2.67;;;;;;;8.88;74.78;99791.00;5120179;28;20027;-64
2021/09/05 07:27:32;;;;;;;2.65;1.90;;;;;;;8.82;74.80;99799.69;5120263;28;20087;-67
2021/09/05 07:30:18;;;;;;;4.13;2.60;;;;;;;8.87;75.53;99804.81;5119123;28;20024;-64
2021/09/05 07:33:03;;;;;;;2.00;1.80;;;;;;;8.94;75.15;99798.69;5120535;28;20027;-64
2021/09/05 07:35:49;;;;;;;2.65;2.33;;;;;;;8.96;75.54;99807.25;5118993;28;20028;-64
2021/09/05 07:38:35;;;;;;;3.05;2.35;;;;;;;8.87;75.99;99807.41;5120834;28;20038;-65
2021/09/05 07:41:21;;;;;;;3.30;2.58;;;;;;;8.89;76.19;99816.84;5120874;28;20356;-64
2021/09/05 07:44:07;;;;;;;2.80;2.40;;;;;;;8.88;76.48;99824.56;5118983;28;20148;-64
2021/09/05 07:46:53;;;;;;;4.15;2.38;;;;;;;8.98;76.93;99816.69;5119361;28;20055;-64
2021/09/05 07:49:38;;;;;;;4.53;3.40;;;;;;;9.01;76.56;99825.28;5120027;28;20038;-64
2021/09/05 07:52:24;;;;;;;2.83;2.58;;;;;;;9.02;76.23;99820.13;5117902;28;20031;-65
2021/09/05 07:55:10;;;;;;;2.60;2.40;;;;;;;9.02;77.13;99822.69;5118491;28;20035;-65
2021/09/05 07:57:56;;;;;;;2.72;2.42;;;;;;;9.08;76.33;99816.59;5118607;28;20347;-64
2021/09/05 08:00:42;;;;;;;2.97;2.45;;;;;;;9.18;77.31;99813.00;5123699;27;20031;-65
2021/09/05 08:03:28;;;;;;;3.83;2.55;;;;;;;9.26;77.32;99820.66;5123006;28;20224;-64
2021/09/05 08:06:14;;;;;;;4.00;2.55;;;;;;;9.53;75.79;99824.56;5122426;28;20020;-65
2021/09/05 08:09:00;;;;;;;3.83;2.30;;;;;;;9.61;75.42;99811.53;5123926;28;20024;-64
2021/09/05 08:11:46;;;;;;;4.68;2.58;;;;;;;9.49;75.23;99782.41;5123401;28;20085;-63
2021/09/05 08:14:33;;;;;;;6.43;2.33;;;;;;;9.66;74.71;99820.94;5123526;28;20092;-64
2021/09/05 08:17:19;;;;;;;5.90;1.75;;;;;;;9.70;74.31;99829.47;5108985;28;20061;-65
2021/09/05 08:20:05;;;;;;;3.75;2.00;;;;;;;9.54;74.77;99838.38;5123445;28;20038;-65
2021/09/05 08:22:51;;;;;;;4.18;1.70;;;;;;;9.59;74.45;99827.06;5124092;28;20328;-65
2021/09/05 08:25:37;;;;;;;2.00;1.70;;;;;;;9.81;73.52;99832.75;5122463;28;20036;-64
2021/09/05 08:28:23;;;;;;;5.28;2.00;;;;;;;9.88;72.91;99843.88;5109206;28;20026;-64
2021/09/05 08:31:09;;;;;;;7.15;2.00;;;;;;;9.84;73.92;99843.03;5123121;28;20093;-64
2021/09/05 08:33:57;;;;;;;7.03;1.95;;;;;;;9.90;73.66;99852.44;5120929;28;20027;-64
2021/09/05 08:36:43;;;;;;;6.03;1.88;;;;;;;9.92;73.09;99852.41;5122365;28;20028;-64
2021/09/05 08:39:30;;;;;;;5.88;2.42;;;;;;;9.81;73.66;99843.09;5120732;28;20036;-64
2021/09/05 08:42:16;;;;;;;3.38;2.20;;;;;;;9.88;73.80;99859.38;5121630;28;20317;-63
2021/09/05 08:45:03;;;;;;;6.70;2.72;;;;;;;9.69;73.58;99840.72;5123336;28;20027;-64
2021/09/05 08:47:49;;;;;;;5.00;1.90;;;;;;;9.98;73.32;99857.50;5120915;28;20070;-64
2021/09/05 08:50:35;;;;;;;3.85;1.83;;;;;;;10.06;72.91;99862.53;5121110;28;20387;-64
2021/09/05 08:53:21;;;;;;;2.70;1.95;;;;;;;10.05;72.56;99855.66;5122063;28;20019;-64
2021/09/05 08:56:07;;;;;;;4.70;2.08;;;;;;;10.02;73.27;99854.84;5122932;28;20047;-62
2021/09/05 08:58:53;;;;;;;6.93;2.63;;;;;;;10.05;72.32;99859.13;5126287;27;20027;-63
2021/09/05 09:01:50;;;;;;;6.20;2.08;;;;;;;10.07;72.71;99857.34;5130452;27;20094;-64
2021/09/05 09:04:38;;;;;;;3.45;2.03;;;;;;;9.80;70.29;99802.59;5122311;28;20319;-64
2021/09/05 09:07:24;;;;;;;2.78;1.75;;;;;;;10.27;70.76;99864.75;5116352;28;20085;-64
2021/09/05 09:10:10;;;;;;;2.13;1.80;;;;;;;10.29;69.96;99864.72;5121108;28;20069;-64
2021/09/05 09:12:56;;;;;;;5.95;2.00;;;;;;;10.25;69.34;99873.47;5122378;28;20031;-65
2021/09/05 09:15:42;;;;;;;2.05;1.70;;;;;;;10.27;69.13;99849.22;5123127;28;20031;-64
2021/09/05 09:18:30;;;;;;;5.15;2.00;;;;;;;9.94;69.75;99815.28;5122237;28;20094;-64
2021/09/05 09:21:18;;;;;;;5.20;1.90;;;;;;;10.19;69.22;99870.09;5121654;28;20051;-67
2021/09/05 09:24:18;;;;;;;5.38;1.70;;;;;;;10.23;69.27;99872.63;5121706;28;20020;-67
2021/09/05 09:27:06;;;;;;;3.13;1.58;;;;;;;9.85;70.05;99818.91;5121577;28;20023;-62
2021/09/05 09:29:58;;;;;;;2.70;1.63;;;;;;;9.95;69.78;99857.56;5121629;28;20059;-66
2021/09/05 09:32:50;;;;;;;1.85;1.45;;;;;;;10.03;69.82;99866.03;5121205;28;20104;-65
2021/09/05 09:36:01;;;;;;;1.67;1.50;;;;;;;10.07;69.34;99870.28;5122657;28;20066;-65
2021/09/05 09:38:54;;;;;;;2.22;1.40;;;;;;;10.23;69.62;99875.19;5120130;28;20034;-66
2021/09/05 09:41:41;;;;;;;1.55;1.45;;;;;;;10.32;68.92;99875.06;5104772;28;20035;-63
2021/09/05 09:44:28;;;;;;;1.80;1.35;;;;;;;10.31;67.01;99881.13;5121180;28;20228;-64
2021/09/05 09:47:14;;;;;;;1.67;1.58;;;;;;;10.34;68.34;99876.75;5092696;28;20240;-65
2021/09/05 09:50:01;;;;;;;1.52;1.40;;;;;;;10.13;68.53;99828.78;5120346;28;20024;-65
2021/09/05 09:52:47;;;;;;;3.97;1.52;;;;;;;10.42;68.03;99873.16;5118915;28;20034;-64
2021/09/05 09:55:37;;;;;;;3.42;1.23;;;;;;;10.25;67.44;99838.06;5120030;28;20351;-64
2021/09/05 09:58:23;;;;;;;2.53;1.42;;;;;;;10.60;68.17;99887.53;5105881;28;20084;-64
2021/09/05 10:01:14;;;;;;;1.80;1.30;;;;;;;10.49;67.15;99859.25;5120339;28;20042;-65
2021/09/05 10:04:02;;;;;;;1.27;1.17;;;;;;;10.73;67.30;99889.03;5121336;28;20311;-64
2021/09/05 10:06:50;;;;;;;1.73;1.63;;;;;;;10.71;67.43;99885.59;5121271;28;20100;-64
2021/09/05 10:09:36;;;;;;;3.75;1.70;;;;;;;10.36;67.47;99854.28;5119997;28;20019;-63
2021/09/05 10:12:22;;;;;;;2.22;1.80;;;;;;;10.56;66.41;99897.09;5121019;28;20099;-65
2021/09/05 10:15:09;;;;;;;3.47;1.80;;;;;;;10.52;66.35;99900.63;5118164;28;20019;-65
2021/09/05 10:17:57;;;;;;;3.40;1.95;;;;;;;10.39;66.94;99909.47;5117592;28;20087;-64
2021/09/05 10:20:44;;;;;;;1.90;1.50;;;;;;;10.41;67.30;99908.56;5121356;28;20023;-65
2021/09/05 10:23:33;;;;;;;2.20;1.48;;;;;;;10.37;66.20;99883.63;5120304;28;20221;-64
2021/09/05 10:26:21;;;;;;;2.63;1.38;;;;;;;10.13;66.45;99839.16;5120967;28;20035;-64
2021/09/05 10:29:13;;;;;;;8.48;2.38;;;;;;;10.45;65.39;99907.66;5120314;28;20023;-64
2021/09/05 10:32:00;;;;;;;3.80;1.90;;;;;;;10.52;64.91;99900.63;5120672;28;20031;-64
2021/09/05 10:34:46;;;;;;;3.58;1.60;;;;;;;10.61;64.77;99905.63;5118985;28;20031;-66
2021/09/05 10:37:32;;;;;;;2.88;1.77;;;;;;;10.50;65.74;99882.53;5120074;28;20059;-65
2021/09/05 10:40:18;;;;;;;5.53;1.92;;;;;;;10.76;66.43;99894.16;5120234;28;20039;-63
2021/09/05 10:43:04;;;;;;;2.28;1.80;;;;;;;10.72;65.14;99900.28;5119351;28;20099;-63
2021/09/05 10:45:54;;;;;;;5.15;1.70;;;;;;;10.80;64.66;99890.63;5119883;28;20030;-64
2021/09/05 10:48:45;;;;;;;3.83;2.17;;;;;;;10.73;64.18;99889.03;5103847;28;20099;-64
2021/09/05 10:51:34;;;;;;;3.63;1.80;;;;;;;10.82;63.86;99898.38;5104943;28;20331;-65
2021/09/05 10:54:22;;;;;;;2.65;1.75;;;;;;;10.87;64.61;99901.69;5120780;28;20078;-63
2021/09/05 10:57:08;;;;;;;2.65;1.77;;;;;;;10.74;65.59;99887.28;5120242;28;20090;-63
2021/09/05 11:00:07;;;;;;;2.60;1.83;;;;;;;10.85;65.39;99908.66;5111510;28;20059;-65
2021/09/05 11:03:22;;;;;;;2.50;1.83;;;;;;;10.87;64.34;99896.53;5117194;28;20028;-62
2021/09/05 11:06:46;;;;;;;7.32;2.20;;;;;;;10.98;65.69;99894.56;5097365;28;20027;-63
2021/09/05 11:09:32;;;;;;;6.40;2.05;;;;;;;11.03;65.63;99894.47;5117158;28;20292;-64
2021/09/05 11:12:40;;;;;;;2.92;1.70;;;;;;;11.04;63.97;99896.19;5118481;28;20028;-65
2021/09/05 11:15:26;;;;;;;2.58;1.75;;;;;;;11.02;63.69;99888.44;5119627;28;20035;-63
2021/09/05 11:18:12;;;;;;;3.60;2.00;;;;;;;11.04;63.89;99891.88;5120217;28;20031;-66
2021/09/05 11:20:58;;;;;;;2.95;2.28;;;;;;;10.83;63.12;99900.06;5118630;28;20019;-66
2021/09/05 11:23:45;;;;;;;3.50;1.90;;;;;;;10.90;63.69;99890.44;5119938;28;20072;-66
2021/09/05 11:26:30;;;;;;;9.75;2.00;;;;;;;10.82;65.17;99888.84;5119496;28;20286;-65
2021/09/05 11:29:23;;;;;;;3.97;1.85;;;;;;;10.84;64.45;99905.19;5119218;28;20068;-65
2021/09/05 11:32:11;;;;;;;3.63;1.70;;;;;;;10.78;63.22;99901.88;5118031;28;20066;-65
2021/09/05 11:34:57;;;;;;;2.33;2.08;;;;;;;10.72;63.51;99897.69;5122880;28;20347;-64
2021/09/05 11:37:45;;;;;;;4.28;2.08;;;;;;;10.55;62.96;99895.41;5122895;28;20084;-67
2021/09/05 11:40:40;;;;;;;4.65;2.08;;;;;;;10.72;62.84;99902.84;5124211;28;20354;-63
2021/09/05 11:43:34;;;;;;;3.13;1.90;;;;;;;10.71;62.70;99909.75;5123817;28;20336;-66
2021/09/05 11:46:20;;;;;;;2.10;1.90;;;;;;;10.65;63.23;99898.69;5123837;28;20024;-64
2021/09/05 11:49:06;;;;;;;2.45;1.88;;;;;;;10.71;62.95;99903.72;5124116;28;20028;-64
2021/09/05 11:51:56;;;;;;;1.85;1.75;;;;;;;10.60;62.98;99922.03;5110382;28;20024;-63
2021/09/05 11:54:46;;;;;;;2.85;2.30;;;;;;;10.49;64.36;99849.75;5123905;28;20224;-64
2021/09/05 11:57:35;;;;;;;5.88;2.20;;;;;;;10.76;64.46;99847.53;5123111;28;20023;-65
2021/09/05 12:00:27;;;;;;;4.93;2.15;;;;;;;11.25;63.57;99901.84;5120846;28;20034;-65
2021/09/05 12:03:23;;;;;;;3.55;2.00;;;;;;;10.95;62.93;99841.97;5119807;28;20118;-65
2021/09/05 12:06:10;;;;;;;5.22;2.33;;;;;;;11.27;64.09;99894.88;5122296;28;20031;-64
2021/09/05 12:08:56;;;;;;;2.80;2.20;;;;;;;11.33;64.06;99894.72;5123720;28;20069;-65
2021/09/05 12:11:57;;;;;;;4.03;1.65;;;;;;;11.22;64.57;99903.59;5124649;27;20027;-65
2021/09/05 12:14:43;;;;;;;2.95;2.10;;;;;;;11.05;65.33;99914.31;5109187;28;20040;-65
2021/09/05 12:17:29;;;;;;;3.85;2.90;;;;;;;10.92;67.37;99920.63;5122609;28;20216;-69
2021/09/05 12:20:17;;;;;;;4.28;2.55;;;;;;;10.55;69.23;99895.41;5123582;28;20036;-66
2021/09/05 12:23:03;;;;;;;2.33;1.60;;;;;;;10.68;70.97;99943.50;5124091;27;20126;-69
2021/09/05 12:25:50;;;;;;;2.13;1.92;;;;;;;10.61;71.41;99935.88;5123127;28;20090;-68
2021/09/05 12:28:36;;;;;;;3.38;2.10;;;;;;;10.52;74.12;99926.53;5091241;28;20262;-69
2021/09/05 12:31:46;;;;;;;4.28;1.80;;;;;;;10.55;75.48;99925.63;5108655;28;20091;-67
2021/09/05 12:34:39;;;;;;;4.15;1.92;;;;;;;10.47;75.71;99918.81;5109882;28;20024;-69
2021/09/05 12:37:26;;;;;;;3.13;2.20;;;;;;;10.48;77.74;99925.72;5122822;27;20035;-68
2021/09/05 12:40:15;;;;;;;4.18;2.13;;;;;;;10.48;78.36;99925.72;5121974;28;20057;-69
2021/09/05 12:43:01;;;;;;;4.93;2.47;;;;;;;10.59;76.79;99935.03;5121190;28;20042;-69
2021/09/05 12:45:55;;;;;;;4.07;2.75;;;;;;;10.57;77.01;99929.03;5122552;28;20031;-69
2021/09/05 12:48:44;;;;;;;3.58;2.67;;;;;;;10.58;78.20;99941.94;5122043;28;20232;-69
2021/09/05 12:51:30;;;;;;;5.38;3.45;;;;;;;10.57;78.23;99940.22;5124489;27;20027;-68
2021/09/05 12:54:18;;;;;;;5.43;3.53;;;;;;;10.58;77.99;99930.75;5121584;28;20125;-69
2021/09/05 12:57:05;;;;;;;7.43;3.58;;;;;;;10.58;76.22;99939.34;5120685;28;20133;-69
2021/09/05 12:59:51;;;;;;;6.63;3.05;;;;;;;10.55;75.46;99939.41;5122241;28;20034;-71
2021/09/05 13:02:37;;;;;;;3.75;2.70;;;;;;;10.55;73.73;99941.16;5120558;28;20059;-69
2021/09/05 13:05:22;;;;;;;3.63;2.85;;;;;;;10.42;76.38;99932.72;5123987;27;20094;-71
2021/09/05 13:08:08;;;;;;;3.35;2.22;;;;;;;10.41;75.82;99936.22;5121638;28;20023;-69
2021/09/05 13:10:54;;;;;;;3.80;2.05;;;;;;;10.17;73.89;99933.09;5120876;28;20043;-69
2021/09/05 13:13:40;;;;;;;3.67;2.13;;;;;;;10.23;75.64;99940.75;5122127;28;20028;-69
2021/09/05 13:16:26;;;;;;;4.07;2.67;;;;;;;10.28;75.90;99951.06;5120503;27;20229;-72